sensor_id;sensor_type;location;lat;lon;timestamp;noise_LAeq;noise_LA_min;noise_LA_max;noise_LA01;noise_LA95
47923;Laerm;33688;44.354;9.228;2023-12-28T00:01:35;35.80;35.13;36.83;;
47923;Laerm;33688;44.354;9.228;2023-12-28T00:04:01;35.80;34.95;37.24;;
47923;Laerm;33688;44.354;9.228;2023-12-28T00:06:27;35.81;35.07;36.97;;
47923;Laerm;33688;44.354;9.228;2023-12-28T00:08:53;35.94;34.96;41.32;;
47923;Laerm;33688;44.354;9.228;2023-12-28T00:11:19;35.81;35.08;36.97;;
47923;Laerm;33688;44.354;9.228;2023-12-28T00:13:46;35.81;35.06;39.55;;
47923;Laerm;33688;44.354;9.228;2023-12-28T00:16:12;35.81;35.00;36.81;;
47923;Laerm;33688;44.354;9.228;2023-12-28T00:18:38;35.81;35.03;37.30;;
47923;Laerm;33688;44.354;9.228;2023-12-28T00:21:04;35.79;35.03;37.11;;
47923;Laerm;33688;44.354;9.228;2023-12-28T00:23:31;35.80;35.13;36.78;;
47923;Laerm;33688;44.354;9.228;2023-12-28T00:25:56;35.81;34.98;37.90;;
47923;Laerm;33688;44.354;9.228;2023-12-28T00:28:22;35.81;35.12;38.05;;
47923;Laerm;33688;44.354;9.228;2023-12-28T00:30:48;35.80;34.91;36.76;;
47923;Laerm;33688;44.354;9.228;2023-12-28T00:33:14;35.81;35.13;36.93;;
47923;Laerm;33688;44.354;9.228;2023-12-28T00:35:41;35.81;35.00;38.15;;
47923;Laerm;33688;44.354;9.228;2023-12-28T00:38:06;35.80;34.97;37.32;;
47923;Laerm;33688;44.354;9.228;2023-12-28T00:40:33;35.79;35.09;37.17;;
47923;Laerm;33688;44.354;9.228;2023-12-28T00:42:59;35.79;34.99;37.09;;
47923;Laerm;33688;44.354;9.228;2023-12-28T00:45:24;35.79;35.05;36.97;;
47923;Laerm;33688;44.354;9.228;2023-12-28T00:47:51;35.79;35.04;37.02;;
47923;Laerm;33688;44.354;9.228;2023-12-28T00:50:18;35.80;35.08;37.04;;
47923;Laerm;33688;44.354;9.228;2023-12-28T00:52:43;35.78;34.83;37.27;;
47923;Laerm;33688;44.354;9.228;2023-12-28T00:55:10;35.79;35.09;36.98;;
47923;Laerm;33688;44.354;9.228;2023-12-28T00:57:37;35.80;34.89;37.23;;
47923;Laerm;33688;44.354;9.228;2023-12-28T01:00:05;35.80;35.12;37.20;;
47923;Laerm;33688;44.354;9.228;2023-12-28T01:02:31;35.81;35.14;37.15;;
47923;Laerm;33688;44.354;9.228;2023-12-28T01:04:57;35.83;35.14;42.40;;
47923;Laerm;33688;44.354;9.228;2023-12-28T01:07:22;35.81;35.10;39.29;;
47923;Laerm;33688;44.354;9.228;2023-12-28T01:09:50;35.80;35.00;37.30;;
47923;Laerm;33688;44.354;9.228;2023-12-28T01:12:16;35.80;35.03;37.03;;
47923;Laerm;33688;44.354;9.228;2023-12-28T01:14:42;35.79;35.12;36.99;;
47923;Laerm;33688;44.354;9.228;2023-12-28T01:17:08;35.81;35.03;36.93;;
47923;Laerm;33688;44.354;9.228;2023-12-28T01:19:34;35.79;35.05;37.01;;
47923;Laerm;33688;44.354;9.228;2023-12-28T01:22:01;35.80;35.02;36.90;;
47923;Laerm;33688;44.354;9.228;2023-12-28T01:24:27;35.90;35.08;40.10;;
47923;Laerm;33688;44.354;9.228;2023-12-28T01:26:53;35.79;35.12;36.96;;
47923;Laerm;33688;44.354;9.228;2023-12-28T01:29:19;35.78;35.07;37.06;;
47923;Laerm;33688;44.354;9.228;2023-12-28T01:31:45;35.78;35.14;36.89;;
47923;Laerm;33688;44.354;9.228;2023-12-28T01:34:11;35.79;35.13;36.96;;
47923;Laerm;33688;44.354;9.228;2023-12-28T01:36:39;35.79;34.95;37.42;;
47923;Laerm;33688;44.354;9.228;2023-12-28T01:39:08;35.80;35.08;43.36;;
47923;Laerm;33688;44.354;9.228;2023-12-28T01:41:37;35.78;35.11;37.01;;
47923;Laerm;33688;44.354;9.228;2023-12-28T01:44:02;35.80;34.92;38.39;;
47923;Laerm;33688;44.354;9.228;2023-12-28T01:46:28;35.79;35.03;37.17;;
47923;Laerm;33688;44.354;9.228;2023-12-28T01:48:55;35.79;35.04;36.83;;
47923;Laerm;33688;44.354;9.228;2023-12-28T01:51:23;35.80;35.18;37.15;;
47923;Laerm;33688;44.354;9.228;2023-12-28T01:53:52;35.80;34.97;36.89;;
47923;Laerm;33688;44.354;9.228;2023-12-28T01:56:19;35.78;35.06;36.87;;
47923;Laerm;33688;44.354;9.228;2023-12-28T01:58:46;35.81;35.09;42.09;;
47923;Laerm;33688;44.354;9.228;2023-12-28T02:01:19;35.79;35.06;37.19;;
47923;Laerm;33688;44.354;9.228;2023-12-28T02:03:46;35.79;35.09;37.41;;
47923;Laerm;33688;44.354;9.228;2023-12-28T02:06:13;35.78;34.87;37.40;;
47923;Laerm;33688;44.354;9.228;2023-12-28T02:08:42;35.78;34.91;36.93;;
47923;Laerm;33688;44.354;9.228;2023-12-28T02:11:09;35.77;35.03;36.84;;
47923;Laerm;33688;44.354;9.228;2023-12-28T02:13:35;35.78;34.89;36.91;;
47923;Laerm;33688;44.354;9.228;2023-12-28T02:16:13;35.78;35.02;37.11;;
47923;Laerm;33688;44.354;9.228;2023-12-28T02:18:44;35.79;35.02;37.08;;
47923;Laerm;33688;44.354;9.228;2023-12-28T02:21:13;35.79;35.05;36.89;;
47923;Laerm;33688;44.354;9.228;2023-12-28T02:23:49;35.78;34.99;36.79;;
47923;Laerm;33688;44.354;9.228;2023-12-28T02:26:17;35.80;35.10;36.94;;
47923;Laerm;33688;44.354;9.228;2023-12-28T02:28:44;35.80;35.10;38.52;;
47923;Laerm;33688;44.354;9.228;2023-12-28T02:31:24;35.78;35.05;37.32;;
47923;Laerm;33688;44.354;9.228;2023-12-28T02:34:08;35.78;35.11;37.04;;
47923;Laerm;33688;44.354;9.228;2023-12-28T02:36:41;35.78;35.00;36.99;;
47923;Laerm;33688;44.354;9.228;2023-12-28T02:39:11;35.78;35.02;37.06;;
47923;Laerm;33688;44.354;9.228;2023-12-28T02:41:40;35.79;35.09;36.95;;
47923;Laerm;33688;44.354;9.228;2023-12-28T02:44:07;35.79;35.06;37.14;;
47923;Laerm;33688;44.354;9.228;2023-12-28T02:46:33;35.81;35.10;36.94;;
47923;Laerm;33688;44.354;9.228;2023-12-28T02:48:58;35.79;35.13;37.17;;
47923;Laerm;33688;44.354;9.228;2023-12-28T02:51:25;35.78;34.97;37.09;;
47923;Laerm;33688;44.354;9.228;2023-12-28T02:53:51;35.81;34.96;36.87;;
47923;Laerm;33688;44.354;9.228;2023-12-28T02:56:16;35.80;34.90;37.06;;
47923;Laerm;33688;44.354;9.228;2023-12-28T02:58:42;35.79;35.01;38.83;;
47923;Laerm;33688;44.354;9.228;2023-12-28T03:01:09;35.80;34.99;36.97;;
47923;Laerm;33688;44.354;9.228;2023-12-28T03:03:35;35.78;34.95;36.99;;
47923;Laerm;33688;44.354;9.228;2023-12-28T03:06:00;35.79;35.11;37.02;;
47923;Laerm;33688;44.354;9.228;2023-12-28T03:08:26;35.79;35.08;36.76;;
47923;Laerm;33688;44.354;9.228;2023-12-28T03:10:52;35.80;35.05;40.07;;
47923;Laerm;33688;44.354;9.228;2023-12-28T03:13:18;35.79;35.01;36.88;;
47923;Laerm;33688;44.354;9.228;2023-12-28T03:15:46;35.79;35.07;39.04;;
47923;Laerm;33688;44.354;9.228;2023-12-28T03:18:12;35.80;35.07;37.32;;
47923;Laerm;33688;44.354;9.228;2023-12-28T03:20:38;35.79;35.14;36.97;;
47923;Laerm;33688;44.354;9.228;2023-12-28T03:23:07;35.78;35.14;36.73;;
47923;Laerm;33688;44.354;9.228;2023-12-28T03:25:33;35.79;34.91;37.58;;
47923;Laerm;33688;44.354;9.228;2023-12-28T03:27:59;35.79;34.96;36.96;;
47923;Laerm;33688;44.354;9.228;2023-12-28T03:30:25;35.80;35.00;36.98;;
47923;Laerm;33688;44.354;9.228;2023-12-28T03:32:51;35.80;35.10;37.29;;
47923;Laerm;33688;44.354;9.228;2023-12-28T03:35:17;35.79;34.90;36.93;;
47923;Laerm;33688;44.354;9.228;2023-12-28T03:37:43;35.78;35.03;37.12;;
47923;Laerm;33688;44.354;9.228;2023-12-28T03:40:10;35.79;35.12;36.88;;
47923;Laerm;33688;44.354;9.228;2023-12-28T03:42:36;36.52;34.92;58.28;;
47923;Laerm;33688;44.354;9.228;2023-12-28T03:45:04;36.01;35.16;44.99;;
47923;Laerm;33688;44.354;9.228;2023-12-28T03:47:30;35.80;35.00;38.52;;
47923;Laerm;33688;44.354;9.228;2023-12-28T03:49:56;35.79;35.01;37.30;;
47923;Laerm;33688;44.354;9.228;2023-12-28T03:52:26;35.78;35.02;36.98;;
47923;Laerm;33688;44.354;9.228;2023-12-28T03:54:52;35.79;35.07;36.88;;
47923;Laerm;33688;44.354;9.228;2023-12-28T03:57:18;35.79;34.96;36.98;;
47923;Laerm;33688;44.354;9.228;2023-12-28T03:59:44;35.78;34.93;36.91;;
47923;Laerm;33688;44.354;9.228;2023-12-28T04:02:11;35.82;34.94;43.71;;
47923;Laerm;33688;44.354;9.228;2023-12-28T04:04:37;35.81;35.08;37.29;;
47923;Laerm;33688;44.354;9.228;2023-12-28T04:07:04;35.80;35.07;36.94;;
47923;Laerm;33688;44.354;9.228;2023-12-28T04:09:33;35.80;35.02;37.27;;
47923;Laerm;33688;44.354;9.228;2023-12-28T04:11:59;35.80;35.03;37.09;;
47923;Laerm;33688;44.354;9.228;2023-12-28T04:14:28;35.79;35.10;37.07;;
47923;Laerm;33688;44.354;9.228;2023-12-28T04:16:57;35.78;35.07;36.89;;
47923;Laerm;33688;44.354;9.228;2023-12-28T04:19:23;35.80;35.02;36.84;;
47923;Laerm;33688;44.354;9.228;2023-12-28T04:21:49;35.79;35.05;37.10;;
47923;Laerm;33688;44.354;9.228;2023-12-28T04:24:14;35.80;34.97;36.98;;
47923;Laerm;33688;44.354;9.228;2023-12-28T04:26:40;35.79;35.01;37.25;;
47923;Laerm;33688;44.354;9.228;2023-12-28T04:29:06;35.78;34.89;37.42;;
47923;Laerm;33688;44.354;9.228;2023-12-28T04:31:33;35.79;35.10;38.84;;
47923;Laerm;33688;44.354;9.228;2023-12-28T04:33:59;35.79;34.95;37.25;;
47923;Laerm;33688;44.354;9.228;2023-12-28T04:36:24;35.78;35.15;37.00;;
47923;Laerm;33688;44.354;9.228;2023-12-28T04:38:50;35.79;34.98;37.28;;
47923;Laerm;33688;44.354;9.228;2023-12-28T04:41:16;35.77;35.07;37.03;;
47923;Laerm;33688;44.354;9.228;2023-12-28T04:43:42;35.80;35.00;37.12;;
47923;Laerm;33688;44.354;9.228;2023-12-28T04:46:09;35.81;35.07;36.99;;
47923;Laerm;33688;44.354;9.228;2023-12-28T04:48:34;35.80;34.93;37.52;;
47923;Laerm;33688;44.354;9.228;2023-12-28T04:51:02;35.81;35.12;36.94;;
47923;Laerm;33688;44.354;9.228;2023-12-28T04:53:29;35.82;35.12;37.46;;
47923;Laerm;33688;44.354;9.228;2023-12-28T04:55:56;35.80;34.89;37.49;;
47923;Laerm;33688;44.354;9.228;2023-12-28T04:58:22;35.94;35.13;48.14;;
47923;Laerm;33688;44.354;9.228;2023-12-28T05:00:49;35.92;35.15;45.54;;
47923;Laerm;33688;44.354;9.228;2023-12-28T05:03:16;35.84;35.00;41.01;;
47923;Laerm;33688;44.354;9.228;2023-12-28T05:05:43;35.83;34.95;42.70;;
47923;Laerm;33688;44.354;9.228;2023-12-28T05:08:08;35.84;35.06;42.94;;
47923;Laerm;33688;44.354;9.228;2023-12-28T05:10:34;35.79;34.91;37.13;;
47923;Laerm;33688;44.354;9.228;2023-12-28T05:13:00;35.81;34.87;37.44;;
47923;Laerm;33688;44.354;9.228;2023-12-28T05:15:26;35.80;35.14;36.95;;
47923;Laerm;33688;44.354;9.228;2023-12-28T05:17:52;35.80;35.06;37.48;;
47923;Laerm;33688;44.354;9.228;2023-12-28T05:20:17;35.80;34.98;37.15;;
47923;Laerm;33688;44.354;9.228;2023-12-28T05:22:43;35.79;35.07;37.13;;
47923;Laerm;33688;44.354;9.228;2023-12-28T05:25:09;36.25;35.16;40.71;;
47923;Laerm;33688;44.354;9.228;2023-12-28T05:27:35;35.96;35.21;38.56;;
47923;Laerm;33688;44.354;9.228;2023-12-28T05:30:00;35.80;35.09;37.82;;
47923;Laerm;33688;44.354;9.228;2023-12-28T05:32:26;35.81;35.04;37.65;;
47923;Laerm;33688;44.354;9.228;2023-12-28T05:34:52;35.81;35.05;38.03;;
47923;Laerm;33688;44.354;9.228;2023-12-28T05:37:18;35.81;35.08;38.46;;
47923;Laerm;33688;44.354;9.228;2023-12-28T05:39:44;35.97;35.06;51.74;;
47923;Laerm;33688;44.354;9.228;2023-12-28T05:42:10;35.87;35.01;41.92;;
47923;Laerm;33688;44.354;9.228;2023-12-28T05:44:35;35.85;34.92;38.44;;
47923;Laerm;33688;44.354;9.228;2023-12-28T05:47:01;35.82;34.95;39.84;;
47923;Laerm;33688;44.354;9.228;2023-12-28T05:49:29;35.81;34.95;36.96;;
47923;Laerm;33688;44.354;9.228;2023-12-28T05:51:57;35.80;35.06;36.89;;
47923;Laerm;33688;44.354;9.228;2023-12-28T05:54:23;35.92;34.89;37.36;;
47923;Laerm;33688;44.354;9.228;2023-12-28T05:56:49;35.98;35.09;37.99;;
47923;Laerm;33688;44.354;9.228;2023-12-28T05:59:15;35.80;35.00;38.31;;
47923;Laerm;33688;44.354;9.228;2023-12-28T06:01:43;35.80;35.15;36.83;;
47923;Laerm;33688;44.354;9.228;2023-12-28T06:04:09;35.82;35.13;37.22;;
47923;Laerm;33688;44.354;9.228;2023-12-28T06:06:35;35.85;35.09;40.51;;
47923;Laerm;33688;44.354;9.228;2023-12-28T06:09:02;35.83;34.99;40.05;;
47923;Laerm;33688;44.354;9.228;2023-12-28T06:11:32;35.81;35.06;36.99;;
47923;Laerm;33688;44.354;9.228;2023-12-28T06:13:57;35.80;35.05;37.06;;
47923;Laerm;33688;44.354;9.228;2023-12-28T06:16:23;35.81;35.07;37.18;;
47923;Laerm;33688;44.354;9.228;2023-12-28T06:18:49;35.81;34.99;37.06;;
47923;Laerm;33688;44.354;9.228;2023-12-28T06:21:15;35.81;35.09;36.99;;
47923;Laerm;33688;44.354;9.228;2023-12-28T06:23:41;36.13;35.03;54.77;;
47923;Laerm;33688;44.354;9.228;2023-12-28T06:26:07;35.82;35.07;36.99;;
47923;Laerm;33688;44.354;9.228;2023-12-28T06:28:33;35.82;35.05;36.96;;
47923;Laerm;33688;44.354;9.228;2023-12-28T06:30:59;35.84;35.16;37.37;;
47923;Laerm;33688;44.354;9.228;2023-12-28T06:33:29;35.85;35.10;38.28;;
47923;Laerm;33688;44.354;9.228;2023-12-28T06:35:55;35.82;34.99;37.56;;
47923;Laerm;33688;44.354;9.228;2023-12-28T06:38:23;35.82;34.97;37.15;;
47923;Laerm;33688;44.354;9.228;2023-12-28T06:40:49;35.82;34.82;36.92;;
47923;Laerm;33688;44.354;9.228;2023-12-28T06:43:15;36.24;35.02;44.64;;
47923;Laerm;33688;44.354;9.228;2023-12-28T06:45:41;35.85;35.02;39.72;;
47923;Laerm;33688;44.354;9.228;2023-12-28T06:48:06;36.15;35.10;44.64;;
47923;Laerm;33688;44.354;9.228;2023-12-28T06:50:32;35.79;35.10;37.29;;
47923;Laerm;33688;44.354;9.228;2023-12-28T06:52:58;35.84;35.08;37.43;;
47923;Laerm;33688;44.354;9.228;2023-12-28T06:55:24;35.81;35.02;37.17;;
47923;Laerm;33688;44.354;9.228;2023-12-28T06:57:50;35.80;35.03;37.13;;
47923;Laerm;33688;44.354;9.228;2023-12-28T07:00:17;35.81;35.11;37.21;;
47923;Laerm;33688;44.354;9.228;2023-12-28T07:02:43;35.82;34.97;37.69;;
47923;Laerm;33688;44.354;9.228;2023-12-28T07:05:09;35.81;35.15;37.15;;
47923;Laerm;33688;44.354;9.228;2023-12-28T07:07:35;35.83;35.10;37.30;;
47923;Laerm;33688;44.354;9.228;2023-12-28T07:10:03;35.80;35.13;37.05;;
47923;Laerm;33688;44.354;9.228;2023-12-28T07:12:29;35.84;35.00;46.69;;
47923;Laerm;33688;44.354;9.228;2023-12-28T07:14:55;36.45;35.21;44.85;;
47923;Laerm;33688;44.354;9.228;2023-12-28T07:17:20;35.80;34.79;36.83;;
47923;Laerm;33688;44.354;9.228;2023-12-28T07:19:48;35.81;35.06;37.01;;
47923;Laerm;33688;44.354;9.228;2023-12-28T07:22:14;35.88;34.88;38.40;;
47923;Laerm;33688;44.354;9.228;2023-12-28T07:24:41;35.80;35.00;37.06;;
47923;Laerm;33688;44.354;9.228;2023-12-28T07:27:07;35.82;34.93;37.52;;
47923;Laerm;33688;44.354;9.228;2023-12-28T07:29:33;37.00;35.15;55.36;;
47923;Laerm;33688;44.354;9.228;2023-12-28T07:31:59;39.79;35.20;56.64;;
47923;Laerm;33688;44.354;9.228;2023-12-28T07:34:24;36.60;35.01;43.88;;
47923;Laerm;33688;44.354;9.228;2023-12-28T07:36:50;54.25;38.25;79.15;;
47923;Laerm;33688;44.354;9.228;2023-12-28T07:39:34;53.81;39.11;80.78;;
47923;Laerm;33688;44.354;9.228;2023-12-28T07:42:00;55.27;39.16;82.65;;
47923;Laerm;33688;44.354;9.228;2023-12-28T07:44:26;46.34;39.75;67.66;;
47923;Laerm;33688;44.354;9.228;2023-12-28T07:46:52;45.71;39.32;65.40;;
47923;Laerm;33688;44.354;9.228;2023-12-28T07:49:18;43.39;39.00;58.96;;
47923;Laerm;33688;44.354;9.228;2023-12-28T07:51:45;46.57;39.50;70.14;;
47923;Laerm;33688;44.354;9.228;2023-12-28T07:54:10;52.05;39.97;72.74;;
47923;Laerm;33688;44.354;9.228;2023-12-28T07:56:36;53.14;39.71;72.48;;
47923;Laerm;33688;44.354;9.228;2023-12-28T07:59:02;49.68;40.23;67.21;;
47923;Laerm;33688;44.354;9.228;2023-12-28T08:01:29;56.05;40.11;81.76;;
47923;Laerm;33688;44.354;9.228;2023-12-28T08:03:55;42.87;39.88;58.93;;
47923;Laerm;33688;44.354;9.228;2023-12-28T08:06:21;45.76;39.94;65.58;;
47923;Laerm;33688;44.354;9.228;2023-12-28T08:08:48;55.87;40.52;78.65;;
47923;Laerm;33688;44.354;9.228;2023-12-28T08:11:14;59.20;40.78;84.02;;
47923;Laerm;33688;44.354;9.228;2023-12-28T08:13:40;52.12;40.41;74.20;;
47923;Laerm;33688;44.354;9.228;2023-12-28T08:16:06;48.74;40.28;64.14;;
47923;Laerm;33688;44.354;9.228;2023-12-28T08:18:33;47.67;40.26;61.80;;
47923;Laerm;33688;44.354;9.228;2023-12-28T08:20:59;50.55;40.47;71.45;;
47923;Laerm;33688;44.354;9.228;2023-12-28T08:23:26;44.73;40.11;60.63;;
47923;Laerm;33688;44.354;9.228;2023-12-28T08:25:52;45.91;39.99;58.82;;
47923;Laerm;33688;44.354;9.228;2023-12-28T08:28:18;46.22;40.30;65.10;;
47923;Laerm;33688;44.354;9.228;2023-12-28T08:30:45;52.04;40.94;75.45;;
47923;Laerm;33688;44.354;9.228;2023-12-28T08:33:11;50.64;40.86;76.72;;
47923;Laerm;33688;44.354;9.228;2023-12-28T08:35:37;50.27;40.68;71.67;;
47923;Laerm;33688;44.354;9.228;2023-12-28T08:38:03;51.97;40.72;68.46;;
47923;Laerm;33688;44.354;9.228;2023-12-28T08:40:29;49.56;40.80;62.69;;
47923;Laerm;33688;44.354;9.228;2023-12-28T08:42:55;49.06;40.56;65.39;;
47923;Laerm;33688;44.354;9.228;2023-12-28T08:45:21;58.71;40.78;84.13;;
47923;Laerm;33688;44.354;9.228;2023-12-28T08:47:47;48.46;40.88;64.37;;
47923;Laerm;33688;44.354;9.228;2023-12-28T08:50:12;47.23;41.26;61.83;;
47923;Laerm;33688;44.354;9.228;2023-12-28T08:52:38;53.58;41.27;80.84;;
47923;Laerm;33688;44.354;9.228;2023-12-28T08:55:06;43.06;40.44;57.39;;
47923;Laerm;33688;44.354;9.228;2023-12-28T08:57:32;44.32;40.58;60.87;;
47923;Laerm;33688;44.354;9.228;2023-12-28T08:59:58;46.60;40.58;62.93;;
47923;Laerm;33688;44.354;9.228;2023-12-28T09:02:29;50.44;40.44;72.64;;
47923;Laerm;33688;44.354;9.228;2023-12-28T09:04:58;53.84;40.57;70.30;;
47923;Laerm;33688;44.354;9.228;2023-12-28T09:07:24;56.90;40.20;86.24;;
47923;Laerm;33688;44.354;9.228;2023-12-28T09:10:18;54.56;40.20;66.65;;
47923;Laerm;33688;44.354;9.228;2023-12-28T09:12:44;55.10;40.47;68.24;;
47923;Laerm;33688;44.354;9.228;2023-12-28T09:15:11;49.52;40.23;70.96;;
47923;Laerm;33688;44.354;9.228;2023-12-28T09:17:36;46.21;40.42;60.37;;
47923;Laerm;33688;44.354;9.228;2023-12-28T09:20:04;50.98;40.67;66.26;;
47923;Laerm;33688;44.354;9.228;2023-12-28T09:22:32;51.36;40.44;71.04;;
47923;Laerm;33688;44.354;9.228;2023-12-28T09:25:03;57.21;40.39;74.31;;
47923;Laerm;33688;44.354;9.228;2023-12-28T09:27:29;53.31;40.37;73.93;;
47923;Laerm;33688;44.354;9.228;2023-12-28T09:29:56;50.33;40.41;67.35;;
47923;Laerm;33688;44.354;9.228;2023-12-28T09:32:21;51.20;40.47;76.27;;
47923;Laerm;33688;44.354;9.228;2023-12-28T09:34:47;51.24;40.26;70.81;;
47923;Laerm;33688;44.354;9.228;2023-12-28T09:37:13;53.26;40.20;73.87;;
47923;Laerm;33688;44.354;9.228;2023-12-28T09:39:40;48.41;40.34;62.22;;
47923;Laerm;33688;44.354;9.228;2023-12-28T09:42:25;52.34;40.79;73.00;;
47923;Laerm;33688;44.354;9.228;2023-12-28T09:44:55;49.50;40.86;67.09;;
47923;Laerm;33688;44.354;9.228;2023-12-28T09:47:24;51.74;40.74;67.41;;
47923;Laerm;33688;44.354;9.228;2023-12-28T09:49:51;54.83;40.96;71.48;;
47923;Laerm;33688;44.354;9.228;2023-12-28T09:52:17;49.85;41.13;68.07;;
47923;Laerm;33688;44.354;9.228;2023-12-28T09:54:43;47.93;40.69;61.10;;
47923;Laerm;33688;44.354;9.228;2023-12-28T09:57:10;58.15;41.15;74.25;;
47923;Laerm;33688;44.354;9.228;2023-12-28T09:59:38;44.63;40.56;61.92;;
47923;Laerm;33688;44.354;9.228;2023-12-28T10:02:06;44.78;40.29;58.41;;
47923;Laerm;33688;44.354;9.228;2023-12-28T10:04:32;46.34;40.41;66.34;;
47923;Laerm;33688;44.354;9.228;2023-12-28T10:06:59;49.17;40.48;64.82;;
47923;Laerm;33688;44.354;9.228;2023-12-28T10:09:25;46.54;40.64;66.36;;
47923;Laerm;33688;44.354;9.228;2023-12-28T10:11:54;57.70;40.50;86.41;;
47923;Laerm;33688;44.354;9.228;2023-12-28T10:14:22;55.35;40.80;71.34;;
47923;Laerm;33688;44.354;9.228;2023-12-28T10:16:49;51.72;40.69;68.28;;
47923;Laerm;33688;44.354;9.228;2023-12-28T10:19:22;49.79;40.94;66.64;;
47923;Laerm;33688;44.354;9.228;2023-12-28T10:21:51;49.09;40.95;64.83;;
47923;Laerm;33688;44.354;9.228;2023-12-28T10:24:16;50.95;40.78;66.81;;
47923;Laerm;33688;44.354;9.228;2023-12-28T10:26:43;48.20;40.78;61.61;;
47923;Laerm;33688;44.354;9.228;2023-12-28T10:29:09;49.76;40.68;66.86;;
47923;Laerm;33688;44.354;9.228;2023-12-28T10:31:36;49.83;40.80;64.17;;
47923;Laerm;33688;44.354;9.228;2023-12-28T10:34:02;47.13;40.50;64.94;;
47923;Laerm;33688;44.354;9.228;2023-12-28T10:36:28;49.11;40.58;64.15;;
47923;Laerm;33688;44.354;9.228;2023-12-28T10:38:57;53.58;40.58;73.10;;
47923;Laerm;33688;44.354;9.228;2023-12-28T10:41:27;50.97;40.58;65.21;;
47923;Laerm;33688;44.354;9.228;2023-12-28T10:44:03;52.28;40.65;65.16;;
47923;Laerm;33688;44.354;9.228;2023-12-28T10:46:32;48.05;40.84;63.21;;
47923;Laerm;33688;44.354;9.228;2023-12-28T10:49:12;51.48;40.92;66.86;;
47923;Laerm;33688;44.354;9.228;2023-12-28T10:51:41;53.45;40.87;73.95;;
47923;Laerm;33688;44.354;9.228;2023-12-28T10:54:49;55.61;40.87;78.48;;
47923;Laerm;33688;44.354;9.228;2023-12-28T10:57:29;59.54;40.86;74.32;;
47923;Laerm;33688;44.354;9.228;2023-12-28T11:00:09;53.43;40.87;74.08;;
47923;Laerm;33688;44.354;9.228;2023-12-28T11:02:48;54.29;40.89;74.56;;
47923;Laerm;33688;44.354;9.228;2023-12-28T11:05:22;50.62;40.28;74.46;;
47923;Laerm;33688;44.354;9.228;2023-12-28T11:07:50;54.11;40.53;77.20;;
47923;Laerm;33688;44.354;9.228;2023-12-28T11:10:21;57.64;41.03;82.79;;
47923;Laerm;33688;44.354;9.228;2023-12-28T11:12:53;51.53;40.41;74.83;;
47923;Laerm;33688;44.354;9.228;2023-12-28T11:15:22;49.59;40.40;66.69;;
47923;Laerm;33688;44.354;9.228;2023-12-28T11:17:49;51.32;40.47;71.11;;
47923;Laerm;33688;44.354;9.228;2023-12-28T11:20:15;64.20;40.68;93.72;;
47923;Laerm;33688;44.354;9.228;2023-12-28T11:22:42;51.22;40.61;75.58;;
47923;Laerm;33688;44.354;9.228;2023-12-28T11:25:18;49.75;40.80;70.79;;
47923;Laerm;33688;44.354;9.228;2023-12-28T11:27:45;48.55;40.51;62.76;;
47923;Laerm;33688;44.354;9.228;2023-12-28T11:30:13;47.85;40.77;62.97;;
47923;Laerm;33688;44.354;9.228;2023-12-28T11:32:43;47.26;40.95;59.20;;
47923;Laerm;33688;44.354;9.228;2023-12-28T11:35:13;48.60;41.02;63.72;;
47923;Laerm;33688;44.354;9.228;2023-12-28T11:37:51;48.80;40.96;65.68;;
47923;Laerm;33688;44.354;9.228;2023-12-28T11:40:18;48.95;41.03;63.77;;
47923;Laerm;33688;44.354;9.228;2023-12-28T11:42:53;51.28;41.10;64.37;;
47923;Laerm;33688;44.354;9.228;2023-12-28T11:45:21;47.57;40.82;62.37;;
47923;Laerm;33688;44.354;9.228;2023-12-28T11:47:59;46.31;40.57;62.98;;
47923;Laerm;33688;44.354;9.228;2023-12-28T11:50:26;41.56;40.51;51.22;;
47923;Laerm;33688;44.354;9.228;2023-12-28T11:52:52;41.49;40.32;52.66;;
47923;Laerm;33688;44.354;9.228;2023-12-28T11:55:22;41.66;40.57;50.65;;
47923;Laerm;33688;44.354;9.228;2023-12-28T11:57:49;43.12;40.41;63.72;;
47923;Laerm;33688;44.354;9.228;2023-12-28T12:00:15;41.81;40.11;50.96;;
47923;Laerm;33688;44.354;9.228;2023-12-28T12:02:45;43.84;40.30;68.53;;
47923;Laerm;33688;44.354;9.228;2023-12-28T12:05:11;43.35;40.32;67.28;;
47923;Laerm;33688;44.354;9.228;2023-12-28T12:07:37;42.17;40.26;56.38;;
47923;Laerm;33688;44.354;9.228;2023-12-28T12:10:04;41.39;40.24;51.65;;
47923;Laerm;33688;44.354;9.228;2023-12-28T12:12:30;41.42;40.47;48.62;;
47923;Laerm;33688;44.354;9.228;2023-12-28T12:14:56;41.33;40.36;46.68;;
47923;Laerm;33688;44.354;9.228;2023-12-28T12:17:22;41.29;40.28;42.81;;
47923;Laerm;33688;44.354;9.228;2023-12-28T12:19:48;41.23;40.21;44.05;;
47923;Laerm;33688;44.354;9.228;2023-12-28T12:22:17;41.17;40.00;44.51;;
47923;Laerm;33688;44.354;9.228;2023-12-28T12:24:47;41.18;40.33;42.20;;
47923;Laerm;33688;44.354;9.228;2023-12-28T12:27:15;41.21;40.30;43.42;;
47923;Laerm;33688;44.354;9.228;2023-12-28T12:29:40;41.28;40.45;44.75;;
47923;Laerm;33688;44.354;9.228;2023-12-28T12:32:06;41.45;40.49;46.09;;
47923;Laerm;33688;44.354;9.228;2023-12-28T12:34:33;41.24;40.20;44.98;;
47923;Laerm;33688;44.354;9.228;2023-12-28T12:36:59;46.46;40.04;71.09;;
47923;Laerm;33688;44.354;9.228;2023-12-28T12:39:26;41.96;40.04;59.81;;
47923;Laerm;33688;44.354;9.228;2023-12-28T12:41:52;41.49;40.36;54.05;;
47923;Laerm;33688;44.354;9.228;2023-12-28T12:44:22;41.69;40.20;55.03;;
47923;Laerm;33688;44.354;9.228;2023-12-28T12:46:48;42.06;40.10;56.63;;
47923;Laerm;33688;44.354;9.228;2023-12-28T12:49:22;41.62;40.44;49.66;;
47923;Laerm;33688;44.354;9.228;2023-12-28T12:51:48;42.94;40.57;58.92;;
47923;Laerm;33688;44.354;9.228;2023-12-28T12:54:17;42.07;40.37;57.73;;
47923;Laerm;33688;44.354;9.228;2023-12-28T12:56:47;41.91;40.33;54.02;;
47923;Laerm;33688;44.354;9.228;2023-12-28T12:59:13;43.15;40.26;63.45;;
47923;Laerm;33688;44.354;9.228;2023-12-28T13:01:45;41.41;40.33;48.69;;
47923;Laerm;33688;44.354;9.228;2023-12-28T13:04:14;41.44;40.26;54.45;;
47923;Laerm;33688;44.354;9.228;2023-12-28T13:06:42;41.87;40.13;56.52;;
47923;Laerm;33688;44.354;9.228;2023-12-28T13:09:09;42.58;40.47;53.71;;
47923;Laerm;33688;44.354;9.228;2023-12-28T13:11:37;42.35;40.47;58.66;;
47923;Laerm;33688;44.354;9.228;2023-12-28T13:14:03;41.52;40.56;43.72;;
47923;Laerm;33688;44.354;9.228;2023-12-28T13:16:30;41.55;40.49;49.52;;
47923;Laerm;33688;44.354;9.228;2023-12-28T13:18:56;47.33;40.71;67.38;;
47923;Laerm;33688;44.354;9.228;2023-12-28T13:21:23;43.52;40.70;57.01;;
47923;Laerm;33688;44.354;9.228;2023-12-28T13:23:49;43.81;40.80;58.07;;
47923;Laerm;33688;44.354;9.228;2023-12-28T13:26:14;45.70;40.41;64.78;;
47923;Laerm;33688;44.354;9.228;2023-12-28T13:28:40;59.51;40.60;79.93;;
47923;Laerm;33688;44.354;9.228;2023-12-28T13:31:08;50.51;40.63;71.68;;
47923;Laerm;33688;44.354;9.228;2023-12-28T13:33:34;46.39;40.62;63.63;;
47923;Laerm;33688;44.354;9.228;2023-12-28T13:35:59;50.60;40.04;66.61;;
47923;Laerm;33688;44.354;9.228;2023-12-28T13:38:25;44.14;40.99;56.27;;
47923;Laerm;33688;44.354;9.228;2023-12-28T13:40:52;48.19;41.07;71.08;;
47923;Laerm;33688;44.354;9.228;2023-12-28T13:43:18;45.20;40.93;57.65;;
47923;Laerm;33688;44.354;9.228;2023-12-28T13:45:44;43.08;40.55;52.71;;